• Join FlightAware (Why Join?)
  • Login
  • US Flag 
12:15AM EDT


 

Airport Tracker/Info


-or-


 

Live Flight TrackerFlight Track Log ✈ N509CS ✈ 19-May-2012 ✈ KDTS

Flight Track Log - Related Links

Times and Time Zones

All times are in EDT time to prevent confusion due to time zone crossing. See the N509CS flight status page for this flight to view local times or setup timezone preferences in your user account.

Time Position Orientation Groundspeed Altitude Reporting Facility
EDT Latitude Longitude Course Direction KTS MPH feet Rate Location/Type
12:38PM 33.0286 -87.5397 161° South 129 148 6,100  Level Atlanta Center
12:46PM 32.7658 -87.4302 161° South  Level FlightAware Approximate
12:47PM 32.7312 -87.4158 161° South  Level FlightAware Approximate
12:48PM 32.6967 -87.4015 161° South  Level FlightAware Approximate
12:49PM 32.6622 -87.3872 161° South  Level FlightAware Approximate
12:50PM 32.6277 -87.3729 161° South  Level FlightAware Approximate
12:51PM 32.5932 -87.3586 161° South  Level FlightAware Approximate
12:52PM 32.5586 -87.3443 161° South  Level FlightAware Approximate
12:53PM 32.5241 -87.3301 161° South  Level FlightAware Approximate
12:54PM 32.4896 -87.3158 161° South  Level FlightAware Approximate
12:55PM 32.4550 -87.3016 138° Southeast  Level FlightAware Approximate
12:56PM 32.4307 -87.2756 161° South  Level FlightAware Approximate
12:57PM 32.3961 -87.2616 161° South  Level FlightAware Approximate
12:58PM 32.3615 -87.2477 161° South  Level FlightAware Approximate
12:59PM 32.3269 -87.2337 161° South  Level FlightAware Approximate
01:00PM 32.2923 -87.2198 161° South  Level FlightAware Approximate
01:01PM 32.2576 -87.2058 161° South  Level FlightAware Approximate
01:02PM 32.2230 -87.1919 161° South  Level FlightAware Approximate
01:03PM 32.1884 -87.1780 161° South  Level FlightAware Approximate
01:04PM 32.1538 -87.1641 161° South  Level FlightAware Approximate
01:05PM 32.1192 -87.1503 161° South  Level FlightAware Approximate
01:06PM 32.0845 -87.1364 161° South  Level FlightAware Approximate
01:07PM 32.0499 -87.1225 161° South  Level FlightAware Approximate
01:08PM 32.0153 -87.1087 161° South  Level FlightAware Approximate
01:09PM 31.9807 -87.0948 161° South  Level FlightAware Approximate
01:10PM 31.9460 -87.0810 161° South  Level FlightAware Approximate
01:11PM 31.9114 -87.0672 161° South  Level FlightAware Approximate
01:12PM 31.8768 -87.0534 161° South  Level FlightAware Approximate
01:13PM 31.8421 -87.0396 161° South  Level FlightAware Approximate
01:14PM 31.8075 -87.0258 161° South  Level FlightAware Approximate
01:15PM 31.7729 -87.0120 161° South  Level FlightAware Approximate
01:16PM 31.7382 -86.9982 161° South  Level FlightAware Approximate
01:17PM 31.7036 -86.9845 161° South  Level FlightAware Approximate
01:18PM 31.6690 -86.9707 161° South  Level FlightAware Approximate
01:19PM 31.6343 -86.9570 161° South  Level FlightAware Approximate
01:20PM 31.5997 -86.9432 161° South  Level FlightAware Approximate
01:21PM 31.5650 -86.9295 161° South  Level FlightAware Approximate
01:22PM 31.5304 -86.9158 161° South  Level FlightAware Approximate
01:23PM 31.4957 -86.9021 167° South  Level FlightAware Approximate
01:24PM 31.4602 -86.8923 163° South  Level FlightAware Approximate
01:25PM 31.4252 -86.8801 161° South  Level FlightAware Approximate
01:26PM 31.3906 -86.8662 161° South  Level FlightAware Approximate
01:27PM 31.3560 -86.8524 161° South  Level FlightAware Approximate
01:28PM 31.3214 -86.8385 161° South  Level FlightAware Approximate
01:29PM 31.2868 -86.8247 161° South  Level FlightAware Approximate
01:30PM 31.2522 -86.8109 161° South  Level FlightAware Approximate
01:31PM 31.2176 -86.7971 161° South  Level FlightAware Approximate
01:32PM 31.1831 -86.7831 156° South  Level FlightAware Approximate
01:33PM 31.1517 -86.7667 161° South  Level FlightAware Approximate
01:34PM 31.1170 -86.7531 161° South  Level FlightAware Approximate
01:35PM 31.0824 -86.7395 161° South  Level FlightAware Approximate
01:36PM 31.0477 -86.7259 161° South  Level FlightAware Approximate
01:37PM 31.0130 -86.7124 160° South  Level FlightAware Approximate
01:38PM 30.9804 -86.6987 162° South  Level FlightAware Approximate
01:39PM 30.9457 -86.6852 162° South  Level FlightAware Approximate
01:40PM 30.9111 -86.6718 162° South  Level FlightAware Approximate
01:41PM 30.8764 -86.6583 162° South  Level FlightAware Approximate
01:42PM 30.8417 -86.6448 162° South  Level FlightAware Approximate
01:43PM 30.8070 -86.6314 162° South  Level FlightAware Approximate
01:44PM 30.7723 -86.6179 162° South  Level FlightAware Approximate
01:45PM 30.7376 -86.6045 145° Southeast  Level FlightAware Approximate
01:46PM 30.7083 -86.5802 164° South  Level FlightAware Approximate
01:47PM 30.6731 -86.5685 164° South  Level FlightAware Approximate
01:48PM 30.6380 -86.5568 164° South  Level FlightAware Approximate
01:49PM 30.6028 -86.5451 158° South  Level FlightAware Approximate
01:50PM 30.5692 -86.5293 166° South  Level FlightAware Approximate
01:51PM 30.5337 -86.5191 166° South  Level FlightAware Approximate
01:52PM 30.4982 -86.5090 165° South  Level FlightAware Approximate
01:53PM 30.4629 -86.4981 160° South  Level FlightAware Approximate
01:54PM 30.4285 -86.4835 153° Southeast  Level Estimated
01:55PM 30.4000 -86.4667 271° West  Level FlightAware Approximate
01:56PM 30.4005 -86.5090 91° East  Level Estimated
01:57PM 30.4000 -86.4667 271° West  Level FlightAware Approximate
01:58PM 30.4005 -86.5090 91° East  Level Estimated
01:59PM 30.4000 -86.4667 271° West  Level FlightAware Approximate
02:00PM 30.4005 -86.5090 91° East  Level Estimated
02:01PM 30.4000 -86.4667 271° West  Level FlightAware Approximate
02:02PM 30.4005 -86.5090 91° East  Level Estimated
02:03PM 30.4000 -86.4667 271° West  Level FlightAware Approximate
02:04PM 30.4005 -86.5090 91° East  Level Estimated
02:05PM 30.4000 -86.4667 271° West  Level FlightAware Approximate
02:06PM 30.4005 -86.5090 91° East  Level Estimated
02:07PM 30.4000 -86.4667 271° West  Level FlightAware Approximate
02:08PM 30.4005 -86.5090 91° East  Level Estimated
02:09PM 30.4000 -86.4667 91° East  Level FlightAware Approximate